NCAR-RAP Real-Time Weather Data

Output produced by METARs form (19 November 2018  12:08 UTC)
found at http://weather.rap.ucar.edu/surface/
 
Conditions at: KAPF observed 19 November 2018  11:53 UTC
Temperature: 21.1°C (70°F)
Dewpoint: 18.9°C (66°F) [RH = 87%]
Pressure (altimeter): 30.07 inches Hg (1018.4 mb)
[Sea-level pressure: 1018.2 mb]
Winds: from the NE (40 degrees) at 7 MPH (6 knots; 3.1 m/s)
Visibility: 10 or more miles (16+ km)
Ceiling: 6000 feet AGL
Clouds: overcast cloud deck at 6000 feet AGL
Present Weather: no significant weather observed at this time
KAPF 191153Z 04006KT 10SM OVC060 21/19 A3007 RMK AO2 SLP182 70002 T02110189 10222 20206 53012

Conditions at: KAPF observed 19 November 2018  10:53 UTC
Temperature: 21.1°C (70°F)
Dewpoint: 18.9°C (66°F) [RH = 87%]
Pressure (altimeter): 30.05 inches Hg (1017.7 mb)
[Sea-level pressure: 1017.5 mb]
Winds: from the ENE (60 degrees) at 6 MPH (5 knots; 2.6 m/s)
Visibility: 10 or more miles (16+ km)
Ceiling: 5000 feet AGL
Clouds: broken clouds at 5000 feet AGL
Present Weather: no significant weather observed at this time
KAPF 191053Z 06005KT 10SM BKN050 21/19 A3005 RMK AO2 SLP175 T02110189

Conditions at: KAPF observed 19 November 2018  09:53 UTC
Temperature: 21.1°C (70°F)
Dewpoint: 19.4°C (67°F) [RH = 90%]
Pressure (altimeter): 30.04 inches Hg (1017.4 mb)
[Sea-level pressure: 1017.1 mb]
Winds: from the NE (40 degrees) at 3 MPH (3 knots; 1.6 m/s)
Visibility: 10 or more miles (16+ km)
Ceiling: 5500 feet AGL
Clouds: broken clouds at 5500 feet AGL
Present Weather: automated observation with no human augmentation;
there may or may not be significant weather present at this time
KAPF 190953Z AUTO 04003KT 10SM BKN055 21/19 A3004 RMK AO2 SLP171 T02110194

Conditions at: KAPF observed 19 November 2018  08:53 UTC
Temperature: 21.1°C (70°F)
Dewpoint: 19.4°C (67°F) [RH = 90%]
Pressure (altimeter): 30.04 inches Hg (1017.4 mb)
[Sea-level pressure: 1017.0 mb]
Winds: from the NE (40 degrees) at 3 MPH (3 knots; 1.6 m/s)
Visibility: 10 or more miles (16+ km)
Ceiling: 5500 feet AGL
Clouds: broken clouds at 5500 feet AGL
Present Weather: automated observation with no human augmentation;
there may or may not be significant weather present at this time
KAPF 190853Z AUTO 04003KT 10SM BKN055 21/19 A3004 RMK AO2 SLP170 T02110194 56008

Conditions at: KAPF observed 19 November 2018  07:53 UTC
Temperature: 21.1°C (70°F)
Dewpoint: 19.4°C (67°F) [RH = 90%]
Pressure (altimeter): 30.04 inches Hg (1017.4 mb)
[Sea-level pressure: 1017.0 mb]
Winds: from the NE (50 degrees) at 5 MPH (4 knots; 2.1 m/s)
Visibility: 10 or more miles (16+ km)
Ceiling: 5500 feet AGL
Clouds: overcast cloud deck at 5500 feet AGL
Present Weather: automated observation with no human augmentation;
there may or may not be significant weather present at this time
KAPF 190753Z AUTO 05004KT 10SM OVC055 21/19 A3004 RMK AO2 SLP170 T02110194

Conditions at: KAPF observed 19 November 2018  06:53 UTC
Temperature: 22.2°C (72°F)
Dewpoint: 19.4°C (67°F) [RH = 84%]
Pressure (altimeter): 30.05 inches Hg (1017.7 mb)
[Sea-level pressure: 1017.4 mb]
Winds: from the NNE (30 degrees) at 6 MPH (5 knots; 2.6 m/s)
Visibility: 10 or more miles (16+ km)
Ceiling: 5500 feet AGL
Clouds: broken clouds at 5500 feet AGL
Present Weather: automated observation with no human augmentation;
there may or may not be significant weather present at this time
KAPF 190653Z AUTO 03005KT 10SM BKN055 22/19 A3005 RMK AO2 SLP174 T02220194

Conditions at: KAPF observed 19 November 2018  05:53 UTC
Temperature: 21.7°C (71°F)
Dewpoint: 20.0°C (68°F) [RH = 90%]
Pressure (altimeter): 30.06 inches Hg (1018.0 mb)
[Sea-level pressure: 1017.7 mb]
Winds: from the NNE (20 degrees) at 5 MPH (4 knots; 2.1 m/s)
Visibility: 10 or more miles (16+ km)
Ceiling: 5000 feet AGL
Clouds: scattered clouds at 3000 feet AGL
broken clouds at 5000 feet AGL
overcast cloud deck at 9000 feet AGL
Present Weather: automated observation with no human augmentation;
there may or may not be significant weather present at this time
KAPF 190553Z AUTO 02004KT 10SM SCT030 BKN050 OVC090 22/20 A3006 RMK AO2 SLP177 60002 T02170200 10256 20217 57013

Conditions at: KAPF observed 19 November 2018  04:53 UTC
Temperature: 21.7°C (71°F)
Dewpoint: 20.0°C (68°F) [RH = 90%]
Pressure (altimeter): 30.07 inches Hg (1018.4 mb)
[Sea-level pressure: 1018.1 mb]
Winds: from the NE (50 degrees) at 5 MPH (4 knots; 2.1 m/s)
Visibility: 10 or more miles (16+ km)
Ceiling: 8000 feet AGL
Clouds: few clouds at 5000 feet AGL
broken clouds at 8000 feet AGL
overcast cloud deck at 9000 feet AGL
Present Weather: automated observation with no human augmentation;
there may or may not be significant weather present at this time
KAPF 190453Z AUTO 05004KT 10SM FEW050 BKN080 OVC090 22/20 A3007 RMK AO2 RAB25E36 SLP181 P0000 T02170200 402890183

Conditions at: KAPF observed 19 November 2018  03:53 UTC
Temperature: 21.7°C (71°F)
Dewpoint: 19.4°C (67°F) [RH = 87%]
Pressure (altimeter): 30.09 inches Hg (1019.0 mb)
[Sea-level pressure: 1018.7 mb]
Winds: from the N (350 degrees) at 5 MPH (4 knots; 2.1 m/s)
Visibility: 8 miles (13 km)
Ceiling: 4600 feet AGL
Clouds: overcast cloud deck at 4600 feet AGL
Present Weather: automated observation with no human augmentation;
there may or may not be significant weather present at this time
KAPF 190353Z AUTO 35004KT 8SM OVC046 22/19 A3009 RMK AO2 RAE09 SLP187 P0000 T02170194

Conditions at: KAPF observed 19 November 2018  03:07 UTC
Temperature: 21.7°C (71°F)
Dewpoint: 20.0°C (68°F) [RH = 90%]
Pressure (altimeter): 30.09 inches Hg (1019.0 mb)
Winds: from the NE (50 degrees) at 7 MPH (6 knots; 3.1 m/s)
Visibility: 4 miles (6 km)
Ceiling: 4200 feet AGL
Clouds: broken clouds at 4200 feet AGL
overcast cloud deck at 5000 feet AGL
Present Weather: -RA BR  (light rain, mist)
KAPF 190307Z AUTO 05006KT 4SM -RA BR BKN042 OVC050 22/20 A3009 RMK AO2 P0000 T02170200

Conditions at: KAPF observed 19 November 2018  02:53 UTC
Temperature: 21.7°C (71°F)
Dewpoint: 20.6°C (69°F) [RH = 93%]
Pressure (altimeter): 30.10 inches Hg (1019.4 mb)
[Sea-level pressure: 1019.1 mb]
Winds: from the ENE (60 degrees) at 5 MPH (4 knots; 2.1 m/s)
Visibility: 2.50 miles (4.02 km)
Ceiling: 4100 feet AGL
Clouds: few clouds at 2800 feet AGL
broken clouds at 4100 feet AGL
overcast cloud deck at 5000 feet AGL
Present Weather: -RA BR  (light rain, mist)
KAPF 190253Z AUTO 06004KT 2 1/2SM -RA BR FEW028 BKN041 OVC050 22/21 A3010 RMK AO2 RAB26 SLP191 P0001 60002 T02170206 51011

Conditions at: KAPF observed 19 November 2018  01:53 UTC
Temperature: 21.7°C (71°F)
Dewpoint: 20.6°C (69°F) [RH = 93%]
Pressure (altimeter): 30.09 inches Hg (1019.0 mb)
[Sea-level pressure: 1018.9 mb]
Winds: from the SE (130 degrees) at 5 MPH (4 knots; 2.1 m/s)
Visibility: 10 or more miles (16+ km)
Ceiling: 4600 feet AGL
Clouds: broken clouds at 4600 feet AGL
Present Weather: no significant weather observed at this time
KAPF 190153Z 13004KT 10SM BKN046 22/21 A3009 RMK AO2 RAB0055E46 SLP189 P0000 T02170206

Conditions at: KAPF observed 19 November 2018  00:53 UTC
Temperature: 22.2°C (72°F)
Dewpoint: 20.6°C (69°F) [RH = 91%]
Pressure (altimeter): 30.08 inches Hg (1018.7 mb)
[Sea-level pressure: 1018.6 mb]
Winds: from the SE (130 degrees) at 8 MPH (7 knots; 3.6 m/s)
Visibility: 7 miles (11 km)
Ceiling: 4100 feet AGL
Clouds: overcast cloud deck at 4100 feet AGL
Present Weather: no significant weather observed at this time
KAPF 190053Z 13007KT 7SM OVC041 22/21 A3008 RMK AO2 RAE47 SLP186 P0001 T02220206

Conditions at: KAPF observed 18 November 2018  23:53 UTC
Temperature: 25.6°C (78°F)
Dewpoint: 18.3°C (65°F) [RH = 64%]
Pressure (altimeter): 30.07 inches Hg (1018.4 mb)
[Sea-level pressure: 1018.0 mb]
Winds: from the SSE (150 degrees) at 5 MPH (4 knots; 2.1 m/s)
Visibility: 7 miles (11 km)
Ceiling: 4100 feet AGL
Clouds: overcast cloud deck at 4100 feet AGL
Present Weather: -RA  (light rain)
KAPF 182353Z 15004KT 7SM -RA OVC041 26/18 A3007 RMK AO2 RAB50 SLP180 P0000 60000 T02560183 10289 20256 53010

Conditions at: KAPF observed 18 November 2018  22:53 UTC
Temperature: 26.1°C (79°F)
Dewpoint: 17.8°C (64°F) [RH = 60%]
Pressure (altimeter): 30.04 inches Hg (1017.4 mb)
[Sea-level pressure: 1017.0 mb]
Winds: from the NE (50 degrees) at 7 MPH (6 knots; 3.1 m/s)
Visibility: 10 or more miles (16+ km)
Ceiling: 4200 feet AGL
Clouds: broken clouds at 4200 feet AGL
broken clouds at 8000 feet AGL
overcast cloud deck at 9500 feet AGL
Present Weather: no significant weather observed at this time
KAPF 182253Z 05006KT 10SM BKN042 BKN080 OVC095 26/18 A3004 RMK AO2 SLP170 T02610178

Conditions at: KAPF observed 18 November 2018  21:53 UTC
Temperature: 27.2°C (81°F)
Dewpoint: 17.2°C (63°F) [RH = 54%]
Pressure (altimeter): 30.04 inches Hg (1017.4 mb)
[Sea-level pressure: 1017.1 mb]
Winds: from the ENE (60 degrees) at 7 MPH (6 knots; 3.1 m/s)
Visibility: 10 or more miles (16+ km)
Ceiling: 4400 feet AGL
Clouds: broken clouds at 4400 feet AGL
Present Weather: no significant weather observed at this time
KAPF 182153Z 06006KT 10SM BKN044 27/17 A3004 RMK AO2 SLP171 T02720172

Conditions at: KAPF observed 18 November 2018  20:53 UTC
Temperature: 27.8°C (82°F)
Dewpoint: 17.2°C (63°F) [RH = 53%]
Pressure (altimeter): 30.04 inches Hg (1017.4 mb)
[Sea-level pressure: 1017.0 mb]
Winds: from the E (80 degrees) at 10 MPH (9 knots; 4.7 m/s)
Visibility: 10 or more miles (16+ km)
Ceiling: 6000 feet AGL
Clouds: overcast cloud deck at 6000 feet AGL
Present Weather: no significant weather observed at this time
KAPF 182053Z 08009KT 10SM OVC060 28/17 A3004 RMK AO2 SLP170 T02780172 56011

Conditions at: KAPF observed 18 November 2018  19:53 UTC
Temperature: 28.3°C (83°F)
Dewpoint: 16.7°C (62°F) [RH = 49%]
Pressure (altimeter): 30.04 inches Hg (1017.4 mb)
[Sea-level pressure: 1017.0 mb]
Winds: from the NE (50 degrees) at 8 MPH (7 knots; 3.6 m/s)
Visibility: 10 or more miles (16+ km)
Ceiling: 7000 feet AGL
Clouds: scattered clouds at 4700 feet AGL
broken clouds at 7000 feet AGL
Present Weather: no significant weather observed at this time
KAPF 181953Z 05007KT 10SM SCT047 BKN070 28/17 A3004 RMK AO2 SLP170 T02830167

Conditions at: KAPF observed 18 November 2018  18:53 UTC
Temperature: 28.3°C (83°F)
Dewpoint: 16.7°C (62°F) [RH = 49%]
Pressure (altimeter): 30.05 inches Hg (1017.7 mb)
[Sea-level pressure: 1017.3 mb]
Winds: from the ENE (70 degrees) at 9 MPH (8 knots; 4.2 m/s)
Visibility: 10 or more miles (16+ km)
Ceiling: at least 12,000 feet AGL
Clouds: few clouds at 5500 feet AGL
scattered clouds at 8000 feet AGL
Present Weather: no significant weather observed at this time
KAPF 181853Z 07008KT 10SM FEW055 SCT080 28/17 A3005 RMK AO2 SLP173 T02830167

Conditions at: KAPF observed 18 November 2018  17:53 UTC
Temperature: 27.2°C (81°F)
Dewpoint: 17.2°C (63°F) [RH = 54%]
Pressure (altimeter): 30.07 inches Hg (1018.4 mb)
[Sea-level pressure: 1018.1 mb]
Winds: variable direction winds at 6 MPH (5 knots; 2.6 m/s)
Visibility: 10 or more miles (16+ km)
Ceiling: at least 12,000 feet AGL
Clouds: few clouds at 2500 feet AGL
Present Weather: no significant weather observed at this time
KAPF 181753Z VRB05KT 10SM FEW025 27/17 A3007 RMK AO2 SLP181 T02720172 10278 20183 58027

Conditions at: KAPF observed 18 November 2018  16:53 UTC
Temperature: 26.7°C (80°F)
Dewpoint: 17.2°C (63°F) [RH = 56%]
Pressure (altimeter): 30.10 inches Hg (1019.4 mb)
[Sea-level pressure: 1019.2 mb]
Winds: from the E (90 degrees) at 9 MPH (8 knots; 4.2 m/s)
Visibility: 10 or more miles (16+ km)
Ceiling: at least 12,000 feet AGL
Clouds: sky clear below 12,000 feet AGL
Present Weather: no significant weather observed at this time
KAPF 181653Z 09008KT 10SM CLR 27/17 A3010 RMK AO2 SLP192 T02670172

Conditions at: KAPF observed 18 November 2018  15:53 UTC
Temperature: 25.0°C (77°F)
Dewpoint: 17.2°C (63°F) [RH = 62%]
Pressure (altimeter): 30.14 inches Hg (1020.7 mb)
[Sea-level pressure: 1020.5 mb]
Winds: from the ENE (60 degrees) at 8 MPH (7 knots; 3.6 m/s)
Visibility: 10 or more miles (16+ km)
Ceiling: 8000 feet AGL
Clouds: few clouds at 6000 feet AGL
overcast cloud deck at 8000 feet AGL
Present Weather: no significant weather observed at this time
KAPF 181553Z 06007KT 10SM FEW060 OVC080 25/17 A3014 RMK AO2 SLP205 T02500172

Conditions at: KAPF observed 18 November 2018  14:53 UTC
Temperature: 22.8°C (73°F)
Dewpoint: 16.1°C (61°F) [RH = 66%]
Pressure (altimeter): 30.15 inches Hg (1021.1 mb)
[Sea-level pressure: 1020.8 mb]
Winds: from the NE (50 degrees) at 8 MPH (7 knots; 3.6 m/s)
Visibility: 10 or more miles (16+ km)
Ceiling: 6000 feet AGL
Clouds: broken clouds at 6000 feet AGL
broken clouds at 7500 feet AGL
Present Weather: no significant weather observed at this time
KAPF 181453Z 05007KT 10SM BKN060 BKN075 23/16 A3015 RMK AO2 SLP208 T02280161 53020

Conditions at: KAPF observed 18 November 2018  13:53 UTC
Temperature: 21.1°C (70°F)
Dewpoint: 15.6°C (60°F) [RH = 71%]
Pressure (altimeter): 30.13 inches Hg (1020.4 mb)
[Sea-level pressure: 1020.0 mb]
Winds: from the ENE (60 degrees) at 8 MPH (7 knots; 3.6 m/s)
Visibility: 10 or more miles (16+ km)
Ceiling: 6500 feet AGL
Clouds: broken clouds at 6500 feet AGL
Present Weather: no significant weather observed at this time
KAPF 181353Z 06007KT 10SM BKN065 21/16 A3013 RMK AO2 SLP200 T02110156

Conditions at: KAPF observed 18 November 2018  12:53 UTC
Temperature: 19.4°C (67°F)
Dewpoint: 15.0°C (59°F) [RH = 76%]
Pressure (altimeter): 30.10 inches Hg (1019.4 mb)
[Sea-level pressure: 1019.1 mb]
Winds: from the ENE (60 degrees) at 9 MPH (8 knots; 4.2 m/s)
Visibility: 10 or more miles (16+ km)
Ceiling: at least 12,000 feet AGL
Clouds: sky clear below 12,000 feet AGL
Present Weather: no significant weather observed at this time
KAPF 181253Z 06008KT 10SM CLR 19/15 A3010 RMK AO2 SLP191 T01940150

Conditions at: KAPF observed 18 November 2018  11:53 UTC
Temperature: 18.3°C (65°F)
Dewpoint: 14.4°C (58°F) [RH = 78%]
Pressure (altimeter): 30.09 inches Hg (1019.0 mb)
[Sea-level pressure: 1018.7 mb]
Winds: from the NE (50 degrees) at 8 MPH (7 knots; 3.6 m/s)
Visibility: 10 or more miles (16+ km)
Ceiling: at least 12,000 feet AGL
Clouds: scattered clouds at 6500 feet AGL
Present Weather: no significant weather observed at this time
KAPF 181153Z 05007KT 10SM SCT065 18/14 A3009 RMK AO2 SLP187 T01830144 10211 20183 53009

Conditions at: KAPF observed 18 November 2018  10:53 UTC
Temperature: 18.3°C (65°F)
Dewpoint: 14.4°C (58°F) [RH = 78%]
Pressure (altimeter): 30.08 inches Hg (1018.7 mb)
[Sea-level pressure: 1018.5 mb]
Winds: from the NE (50 degrees) at 7 MPH (6 knots; 3.1 m/s)
Visibility: 10 or more miles (16+ km)
Ceiling: 8000 feet AGL
Clouds: few clouds at 7000 feet AGL
broken clouds at 8000 feet AGL
Present Weather: no significant weather observed at this time
KAPF 181053Z 05006KT 10SM FEW070 BKN080 18/14 A3008 RMK AO2 SLP185 T01830144

Conditions at: KAPF observed 18 November 2018  09:53 UTC
Temperature: 18.9°C (66°F)
Dewpoint: 14.4°C (58°F) [RH = 75%]
Pressure (altimeter): 30.07 inches Hg (1018.4 mb)
[Sea-level pressure: 1018.0 mb]
Winds: from the NNE (30 degrees) at 6 MPH (5 knots; 2.6 m/s)
Visibility: 10 or more miles (16+ km)
Ceiling: 6000 feet AGL
Clouds: broken clouds at 6000 feet AGL
overcast cloud deck at 8000 feet AGL
Present Weather: automated observation with no human augmentation;
there may or may not be significant weather present at this time
KAPF 180953Z AUTO 03005KT 10SM BKN060 OVC080 19/14 A3007 RMK AO2 SLP180 T01890144

Conditions at: KAPF observed 18 November 2018  08:53 UTC
Temperature: 19.4°C (67°F)
Dewpoint: 14.4°C (58°F) [RH = 73%]
Pressure (altimeter): 30.06 inches Hg (1018.0 mb)
[Sea-level pressure: 1017.8 mb]
Winds: from the NNE (30 degrees) at 5 MPH (4 knots; 2.1 m/s)
Visibility: 10 or more miles (16+ km)
Ceiling: 6000 feet AGL
Clouds: broken clouds at 6000 feet AGL
overcast cloud deck at 8000 feet AGL
Present Weather: automated observation with no human augmentation;
there may or may not be significant weather present at this time
KAPF 180853Z AUTO 03004KT 10SM BKN060 OVC080 19/14 A3006 RMK AO2 SLP178 T01940144 55003

Conditions at: KAPF observed 18 November 2018  07:53 UTC
Temperature: 19.4°C (67°F)
Dewpoint: 14.4°C (58°F) [RH = 73%]
Pressure (altimeter): 30.06 inches Hg (1018.0 mb)
[Sea-level pressure: 1017.6 mb]
Winds: from the NE (40 degrees) at 7 MPH (6 knots; 3.1 m/s)
Visibility: 10 or more miles (16+ km)
Ceiling: 5500 feet AGL
Clouds: broken clouds at 5500 feet AGL
overcast cloud deck at 7500 feet AGL
Present Weather: automated observation with no human augmentation;
there may or may not be significant weather present at this time
KAPF 180753Z AUTO 04006KT 10SM BKN055 OVC075 19/14 A3006 RMK AO2 SLP176 T01940144

Conditions at: KAPF observed 18 November 2018  06:53 UTC
Temperature: 19.4°C (67°F)
Dewpoint: 15.0°C (59°F) [RH = 76%]
Pressure (altimeter): 30.06 inches Hg (1018.0 mb)
[Sea-level pressure: 1017.9 mb]
Winds: from the NE (40 degrees) at 7 MPH (6 knots; 3.1 m/s)
Visibility: 10 or more miles (16+ km)
Ceiling: at least 12,000 feet AGL
Clouds: few clouds at 5500 feet AGL
scattered clouds at 7000 feet AGL
Present Weather: automated observation with no human augmentation;
there may or may not be significant weather present at this time
KAPF 180653Z AUTO 04006KT 10SM FEW055 SCT070 19/15 A3006 RMK AO2 SLP179 T01940150

Conditions at: KAPF observed 18 November 2018  05:53 UTC
Temperature: 20.0°C (68°F)
Dewpoint: 15.0°C (59°F) [RH = 73%]
Pressure (altimeter): 30.07 inches Hg (1018.4 mb)
[Sea-level pressure: 1018.2 mb]
Winds: from the NE (40 degrees) at 7 MPH (6 knots; 3.1 m/s)
Visibility: 10 or more miles (16+ km)
Ceiling: 7000 feet AGL
Clouds: broken clouds at 7000 feet AGL
Present Weather: automated observation with no human augmentation;
there may or may not be significant weather present at this time
KAPF 180553Z AUTO 04006KT 10SM BKN070 20/15 A3007 RMK AO2 SLP182 T02000150 10233 20194 58009

Conditions at: KAPF observed 18 November 2018  04:53 UTC
Temperature: 19.4°C (67°F)
Dewpoint: 15.6°C (60°F) [RH = 79%]
Pressure (altimeter): 30.09 inches Hg (1019.0 mb)
[Sea-level pressure: 1018.6 mb]
Winds: from the NE (50 degrees) at 7 MPH (6 knots; 3.1 m/s)
Visibility: 10 or more miles (16+ km)
Ceiling: at least 12,000 feet AGL
Clouds: few clouds at 5500 feet AGL
Present Weather: automated observation with no human augmentation;
there may or may not be significant weather present at this time
KAPF 180453Z AUTO 05006KT 10SM FEW055 19/16 A3009 RMK AO2 SLP186 T01940156 402610139

Conditions at: KAPF observed 18 November 2018  03:53 UTC
Temperature: 20.0°C (68°F)
Dewpoint: 15.0°C (59°F) [RH = 73%]
Pressure (altimeter): 30.10 inches Hg (1019.4 mb)
[Sea-level pressure: 1019.0 mb]
Winds: from the ENE (60 degrees) at 8 MPH (7 knots; 3.6 m/s)
Visibility: 10 or more miles (16+ km)
Ceiling: at least 12,000 feet AGL
Clouds: sky clear below 12,000 feet AGL
Present Weather: automated observation with no human augmentation;
there may or may not be significant weather present at this time
KAPF 180353Z AUTO 06007KT 10SM CLR 20/15 A3010 RMK AO2 SLP190 T02000150

Conditions at: KAPF observed 18 November 2018  02:53 UTC
Temperature: 21.1°C (70°F)
Dewpoint: 14.4°C (58°F) [RH = 66%]
Pressure (altimeter): 30.10 inches Hg (1019.4 mb)
[Sea-level pressure: 1019.1 mb]
Winds: from the ENE (60 degrees) at 9 MPH (8 knots; 4.2 m/s)
Visibility: 10 or more miles (16+ km)
Ceiling: at least 12,000 feet AGL
Clouds: sky clear below 12,000 feet AGL
Present Weather: automated observation with no human augmentation;
there may or may not be significant weather present at this time
KAPF 180253Z AUTO 06008KT 10SM CLR 21/14 A3010 RMK AO2 SLP191 T02110144 50005

Conditions at: KAPF observed 18 November 2018  01:53 UTC
Temperature: 21.7°C (71°F)
Dewpoint: 13.9°C (57°F) [RH = 61%]
Pressure (altimeter): 30.11 inches Hg (1019.7 mb)
[Sea-level pressure: 1019.4 mb]
Winds: from the ENE (70 degrees) at 10 MPH (9 knots; 4.7 m/s)
Visibility: 10 or more miles (16+ km)
Ceiling: at least 12,000 feet AGL
Clouds: scattered clouds at 6000 feet AGL
Present Weather:
SOME DATA ABOVE MAY BE INACCURATE!!!
"$" is an indication the sensor requires maintenance
KAPF 180153Z 07009KT 10SM SCT060 22/14 A3011 RMK AO2 SLP194 T02170139 $

Conditions at: KAPF observed 18 November 2018  00:53 UTC
Temperature: 22.8°C (73°F)
Dewpoint: 12.2°C (54°F) [RH = 51%]
Pressure (altimeter): 30.10 inches Hg (1019.4 mb)
[Sea-level pressure: 1019.0 mb]
Winds: from the ENE (60 degrees) at 9 MPH (8 knots; 4.2 m/s)
Visibility: 10 or more miles (16+ km)
Ceiling: at least 12,000 feet AGL
Clouds: scattered clouds at 8000 feet AGL
Present Weather:
SOME DATA ABOVE MAY BE INACCURATE!!!
"$" is an indication the sensor requires maintenance
KAPF 180053Z 06008KT 10SM SCT080 23/12 A3010 RMK AO2 SLP190 T02280122 $

Conditions at: KAPF observed 17 November 2018  23:53 UTC
Temperature: 23.3°C (74°F)
Dewpoint: 12.2°C (54°F) [RH = 50%]
Pressure (altimeter): 30.08 inches Hg (1018.7 mb)
[Sea-level pressure: 1018.6 mb]
Winds: from the NE (50 degrees) at 6 MPH (5 knots; 2.6 m/s)
Visibility: 10 or more miles (16+ km)
Ceiling: 5500 feet AGL
Clouds: broken clouds at 5500 feet AGL
overcast cloud deck at 8000 feet AGL
Present Weather:
SOME DATA ABOVE MAY BE INACCURATE!!!
"$" is an indication the sensor requires maintenance
KAPF 172353Z 05005KT 10SM BKN055 OVC080 23/12 A3008 RMK AO2 SLP186 T02330122 10261 20233 $

Conditions at: KAPF observed 17 November 2018  22:53 UTC
Temperature: 24.4°C (76°F)
Dewpoint: 13.9°C (57°F) [RH = 52%]
Pressure (altimeter): 30.07 inches Hg (1018.4 mb)
[Sea-level pressure: 1018.1 mb]
Winds: from the NNE (30 degrees) at 7 MPH (6 knots; 3.1 m/s)
Visibility: 10 or more miles (16+ km)
Ceiling: 6500 feet AGL
Clouds: broken clouds at 6500 feet AGL
overcast cloud deck at 8000 feet AGL
Present Weather:
SOME DATA ABOVE MAY BE INACCURATE!!!
"$" is an indication the sensor requires maintenance
KAPF 172253Z 03006KT 10SM BKN065 OVC080 24/14 A3007 RMK AO2 SLP181 T02440139 $

Conditions at: KAPF observed 17 November 2018  21:53 UTC
Temperature: 25.0°C (77°F)
Dewpoint: 13.9°C (57°F) [RH = 50%]
Pressure (altimeter): 30.06 inches Hg (1018.0 mb)
[Sea-level pressure: 1017.7 mb]
Winds: from the NE (50 degrees) at 7 MPH (6 knots; 3.1 m/s)
Visibility: 10 or more miles (16+ km)
Ceiling: 6500 feet AGL
Clouds: overcast cloud deck at 6500 feet AGL
Present Weather: no significant weather observed at this time
KAPF 172153Z 05006KT 10SM OVC065 25/14 A3006 RMK AO2 SLP177 T02500139

Conditions at: KAPF observed 17 November 2018  20:53 UTC
Temperature: 25.6°C (78°F)
Dewpoint: 14.4°C (58°F) [RH = 50%]
Pressure (altimeter): 30.04 inches Hg (1017.4 mb)
[Sea-level pressure: 1017.0 mb]
Winds: from the NE (50 degrees) at 10 MPH (9 knots; 4.7 m/s)
Visibility: 10 or more miles (16+ km)
Ceiling: 6500 feet AGL
Clouds: overcast cloud deck at 6500 feet AGL
Present Weather: no significant weather observed at this time
KAPF 172053Z 05009KT 10SM OVC065 26/14 A3004 RMK AO2 SLP170 T02560144 56015

Conditions at: KAPF observed 17 November 2018  19:53 UTC
Temperature: 25.0°C (77°F)
Dewpoint: 15.0°C (59°F) [RH = 54%]
Pressure (altimeter): 30.05 inches Hg (1017.7 mb)
[Sea-level pressure: 1017.4 mb]
Winds: from the ENE (70 degrees) at 12 MPH (10 knots; 5.2 m/s)
Visibility: 10 or more miles (16+ km)
Ceiling: 6000 feet AGL
Clouds: broken clouds at 6000 feet AGL
Present Weather: no significant weather observed at this time
KAPF 171953Z 07010KT 10SM BKN060 25/15 A3005 RMK AO2 SLP174 T02500150

Conditions at: KAPF observed 17 November 2018  18:53 UTC
Temperature: 26.1°C (79°F)
Dewpoint: 14.4°C (58°F) [RH = 49%]
Pressure (altimeter): 30.05 inches Hg (1017.7 mb)
[Sea-level pressure: 1017.5 mb]
Winds: from the NE (40 degrees) at 10 MPH (9 knots; 4.7 m/s)
Visibility: 10 or more miles (16+ km)
Ceiling: at least 12,000 feet AGL
Clouds: sky clear below 12,000 feet AGL
Present Weather: no significant weather observed at this time
KAPF 171853Z 04009KT 10SM CLR 26/14 A3005 RMK AO2 SLP175 T02610144

Conditions at: KAPF observed 17 November 2018  17:53 UTC
Temperature: 24.4°C (76°F)
Dewpoint: 14.4°C (58°F) [RH = 54%]
Pressure (altimeter): 30.08 inches Hg (1018.7 mb)
[Sea-level pressure: 1018.4 mb]
Winds: from the ENE (60 degrees) at 13 MPH (11 knots; 5.7 m/s)
Visibility: 10 or more miles (16+ km)
Ceiling: at least 12,000 feet AGL
Clouds: sky clear below 12,000 feet AGL
Present Weather: no significant weather observed at this time
KAPF 171753Z 06011KT 10SM CLR 24/14 A3008 RMK AO2 SLP184 T02440144 10244 20139 58022

Conditions at: KAPF observed 17 November 2018  16:53 UTC
Temperature: 23.3°C (74°F)
Dewpoint: 13.9°C (57°F) [RH = 56%]
Pressure (altimeter): 30.11 inches Hg (1019.7 mb)
[Sea-level pressure: 1019.5 mb]
Winds: from the NE (50 degrees) at 14 MPH (12 knots; 6.2 m/s)
Visibility: 10 or more miles (16+ km)
Ceiling: at least 12,000 feet AGL
Clouds: sky clear below 12,000 feet AGL
Present Weather: no significant weather observed at this time
KAPF 171653Z 05012KT 10SM CLR 23/14 A3011 RMK AO2 SLP195 T02330139

Conditions at: KAPF observed 17 November 2018  15:53 UTC
Temperature: 21.7°C (71°F)
Dewpoint: 13.3°C (56°F) [RH = 59%]
Pressure (altimeter): 30.14 inches Hg (1020.7 mb)
[Sea-level pressure: 1020.4 mb]
Winds: from the NNE (30 degrees) at 12 MPH (10 knots; 5.2 m/s)
Visibility: 10 or more miles (16+ km)
Ceiling: at least 12,000 feet AGL
Clouds: sky clear below 12,000 feet AGL
Present Weather: no significant weather observed at this time
KAPF 171553Z 03010KT 10SM CLR 22/13 A3014 RMK AO2 SLP204 T02170133

Conditions at: KAPF observed 17 November 2018  14:53 UTC
Temperature: 18.9°C (66°F)
Dewpoint: 12.2°C (54°F) [RH = 65%]
Pressure (altimeter): 30.15 inches Hg (1021.1 mb)
[Sea-level pressure: 1020.7 mb]
Winds: from the NNE (20 degrees) at 13 MPH (11 knots; 5.7 m/s)
Visibility: 10 or more miles (16+ km)
Ceiling: at least 12,000 feet AGL
Clouds: sky clear below 12,000 feet AGL
Present Weather: no significant weather observed at this time
KAPF 171453Z 02011KT 10SM CLR 19/12 A3015 RMK AO2 SLP207 T01890122 50010

Conditions at: KAPF observed 17 November 2018  13:53 UTC
Temperature: 16.1°C (61°F)
Dewpoint: 11.1°C (52°F) [RH = 72%]
Pressure (altimeter): 30.15 inches Hg (1021.1 mb)
[Sea-level pressure: 1020.9 mb]
Winds: from the NNE (20 degrees) at 13 MPH (11 knots; 5.7 m/s)
Visibility: 10 or more miles (16+ km)
Ceiling: 3900 feet AGL
Clouds: broken clouds at 3900 feet AGL
overcast cloud deck at 5000 feet AGL
Present Weather:
SOME DATA ABOVE MAY BE INACCURATE!!!
"$" is an indication the sensor requires maintenance
KAPF 171353Z 02011KT 10SM BKN039 OVC050 16/11 A3015 RMK AO2 SLP209 T01610111 $

Conditions at: KAPF observed 17 November 2018  12:53 UTC
Temperature: 15.0°C (59°F)
Dewpoint: 10.6°C (51°F) [RH = 75%]
Pressure (altimeter): 30.13 inches Hg (1020.4 mb)
[Sea-level pressure: 1020.2 mb]
Winds: from the NNE (30 degrees) at 9 MPH (8 knots; 4.2 m/s)
Visibility: 10 or more miles (16+ km)
Ceiling: 3500 feet AGL
Clouds: broken clouds at 3500 feet AGL
broken clouds at 5000 feet AGL
Present Weather:
SOME DATA ABOVE MAY BE INACCURATE!!!
"$" is an indication the sensor requires maintenance
KAPF 171253Z 03008KT 10SM BKN035 BKN050 15/11 A3013 RMK AO2 SLP202 T01500106 $